Time;durP1;ratioP1;P1;durP2;ratioP2;P2;SDS_P1;SDS_P2;PMS_P1;PMS_P2;Temp;Humidity;BMP_temperature;BMP_pressure;BME280_temperature;BME280_humidity;BME280_pressure;Samples;Min_cycle;Max_cycle;Signal;HPM_P1;HPM_P2
2022/04/01 00:00:19;;;;;;;1.20;0.90;;;7.30;98.00;;;;;;6095699;23;20407;-68
2022/04/01 00:02:47;;;;;;;1.20;1.00;;;7.30;98.00;;;;;;6095069;23;20446;-68
2022/04/01 00:05:15;;;;;;;1.20;1.10;;;7.30;98.00;;;;;;6095610;23;20498;-68
2022/04/01 00:07:43;;;;;;;1.20;1.00;;;7.30;98.00;;;;;;6121241;23;20422;-68
2022/04/01 00:10:11;;;;;;;1.20;1.03;;;7.20;98.00;;;;;;6121226;23;20808;-68
2022/04/01 00:12:41;;;;;;;1.20;1.00;;;7.20;98.00;;;;;;6121028;23;20970;-68
2022/04/01 00:15:12;;;;;;;1.43;1.33;;;7.20;98.00;;;;;;6120865;23;20452;-68
2022/04/01 00:17:39;;;;;;;1.20;1.00;;;7.00;98.00;;;;;;6121490;23;20417;-68
2022/04/01 00:20:06;;;;;;;1.60;1.17;;;7.00;98.00;;;;;;6120790;23;20422;-68
2022/04/01 00:22:34;;;;;;;1.50;1.30;;;7.10;98.00;;;;;;6121371;23;20441;-68
2022/04/01 00:25:01;;;;;;;1.20;1.00;;;7.00;98.00;;;;;;6121236;23;20406;-68
2022/04/01 00:27:28;;;;;;;1.20;1.00;;;7.10;98.00;;;;;;6121286;23;21008;-68
2022/04/01 00:29:55;;;;;;;1.37;1.33;;;7.20;98.00;;;;;;6121049;23;20453;-68
2022/04/01 00:32:22;;;;;;;1.50;1.30;;;7.10;98.00;;;;;;6121412;23;20422;-68
2022/04/01 00:34:51;;;;;;;1.63;1.30;;;7.10;98.00;;;;;;6121378;23;20445;-68
2022/04/01 00:37:19;;;;;;;1.50;1.43;;;7.10;98.00;;;;;;6121442;23;20401;-68
2022/04/01 00:39:47;;;;;;;1.20;1.00;;;7.10;98.00;;;;;;6121575;23;20712;-67
2022/04/01 00:42:14;;;;;;;1.70;1.30;;;7.00;98.00;;;;;;6120846;23;20421;-68
2022/04/01 00:44:42;;;;;;;1.57;1.43;;;6.90;98.00;;;;;;6121345;23;20411;-68
2022/04/01 00:47:10;;;;;;;1.40;1.00;;;6.80;98.00;;;;;;6120768;23;20445;-68
2022/04/01 00:49:39;;;;;;;1.20;1.00;;;6.80;98.00;;;;;;6120549;23;20430;-68
2022/04/01 00:52:08;;;;;;;1.30;1.10;;;6.70;98.00;;;;;;6120922;23;20511;-68
2022/04/01 00:54:37;;;;;;;2.00;1.60;;;6.70;98.00;;;;;;6121173;23;20721;-68
2022/04/01 00:57:10;;;;;;;1.20;1.00;;;6.70;98.00;;;;;;6120975;23;20500;-68
2022/04/01 00:59:37;;;;;;;1.30;1.00;;;6.50;98.00;;;;;;6121142;23;20471;-68
2022/04/01 01:02:05;;;;;;;1.40;1.20;;;6.40;98.00;;;;;;6120910;23;20401;-68
2022/04/01 01:04:32;;;;;;;1.40;1.20;;;6.20;98.00;;;;;;6121178;23;20402;-68
2022/04/01 01:07:00;;;;;;;1.20;1.00;;;6.30;98.00;;;;;;6120742;23;20419;-68
2022/04/01 01:09:28;;;;;;;1.37;1.27;;;6.40;98.00;;;;;;6120835;23;20419;-68
2022/04/01 01:11:56;;;;;;;1.30;1.10;;;6.50;98.00;;;;;;6120991;23;20424;-67
2022/04/01 01:14:30;;;;;;;1.20;1.10;;;6.60;98.00;;;;;;6121101;23;20426;-68
2022/04/01 01:16:58;;;;;;;1.20;1.00;;;6.60;98.00;;;;;;6120862;23;20861;-68
2022/04/01 01:19:26;;;;;;;1.27;1.23;;;6.60;98.00;;;;;;6121004;23;20420;-68
2022/04/01 01:21:55;;;;;;;1.63;1.50;;;6.60;98.00;;;;;;6120627;23;20420;-68
2022/04/01 01:24:32;;;;;;;1.30;1.10;;;6.60;98.00;;;;;;6120975;23;20455;-68
2022/04/01 01:27:01;;;;;;;1.50;1.00;;;6.70;98.00;;;;;;6121115;23;20721;-68
2022/04/01 01:29:29;;;;;;;1.30;1.10;;;6.60;98.00;;;;;;6120752;23;20478;-67
2022/04/01 01:31:58;;;;;;;2.27;1.70;;;6.60;98.00;;;;;;6119995;23;21059;-68
2022/04/01 01:34:27;;;;;;;1.20;1.20;;;6.70;98.00;;;;;;6120417;23;20396;-67
2022/04/01 01:36:54;;;;;;;1.77;1.13;;;6.70;98.00;;;;;;6120068;23;20444;-68
2022/04/01 01:39:22;;;;;;;1.20;1.10;;;6.70;98.00;;;;;;6120505;23;20884;-67
2022/04/01 01:41:53;;;;;;;1.57;1.40;;;6.70;98.00;;;;;;6120417;23;20423;-68
2022/04/01 01:44:21;;;;;;;1.30;1.13;;;6.60;98.00;;;;;;6120211;23;20934;-68
2022/04/01 01:46:48;;;;;;;2.70;1.20;;;6.60;98.00;;;;;;6120222;23;20435;-67
2022/04/01 01:49:16;;;;;;;1.53;1.10;;;6.60;98.00;;;;;;6120129;23;20457;-68
2022/04/01 01:54:44;;;;;;;1.40;1.10;;;6.50;98.00;;;;;;6120532;23;20436;-68
2022/04/01 01:57:14;;;;;;;1.20;1.10;;;6.40;98.00;;;;;;6120543;23;20426;-68
2022/04/01 01:59:41;;;;;;;1.40;1.30;;;6.30;98.00;;;;;;6120690;23;20859;-68
2022/04/01 02:02:08;;;;;;;1.50;1.40;;;6.20;98.00;;;;;;6120489;23;20431;-68
2022/04/01 02:04:36;;;;;;;2.73;2.00;;;6.10;98.00;;;;;;6120325;23;20470;-68
2022/04/01 02:07:04;;;;;;;1.20;1.10;;;6.00;98.00;;;;;;6120634;23;20721;-68
2022/04/01 02:09:31;;;;;;;1.20;0.90;;;6.10;98.00;;;;;;6120420;23;20406;-68
2022/04/01 02:11:58;;;;;;;1.20;1.00;;;6.10;98.00;;;;;;6120714;23;20482;-68
2022/04/01 02:14:27;;;;;;;1.20;1.00;;;6.30;98.00;;;;;;6120177;23;20896;-68
2022/04/01 02:16:54;;;;;;;1.20;1.00;;;6.30;98.00;;;;;;6120536;23;20885;-68
2022/04/01 02:19:22;;;;;;;1.20;1.00;;;6.30;98.00;;;;;;6095359;23;20485;-68
2022/04/01 02:21:50;;;;;;;1.20;1.00;;;6.30;98.00;;;;;;6120571;23;20468;-68
2022/04/01 02:24:18;;;;;;;1.70;1.33;;;6.10;98.00;;;;;;6120525;23;21028;-68
2022/04/01 02:26:49;;;;;;;1.30;1.30;;;6.20;98.00;;;;;;6120243;23;20417;-68
2022/04/01 02:29:18;;;;;;;1.20;1.20;;;6.20;98.00;;;;;;6120701;23;20420;-68
2022/04/01 02:31:48;;;;;;;1.20;1.00;;;6.30;98.00;;;;;;6120048;23;20421;-68
2022/04/01 02:34:15;;;;;;;1.40;1.13;;;6.20;98.00;;;;;;6119966;23;20426;-68
2022/04/01 02:36:43;;;;;;;1.30;1.13;;;6.20;98.00;;;;;;6120264;23;20450;-67
2022/04/01 02:39:10;;;;;;;1.20;1.00;;;6.20;98.00;;;;;;6120132;23;20404;-68
2022/04/01 02:41:37;;;;;;;1.20;1.10;;;6.20;98.00;;;;;;6120216;23;20751;-68
2022/04/01 02:44:12;;;;;;;1.20;0.90;;;6.20;98.00;;;;;;6120710;23;20484;-68
2022/04/01 02:46:42;;;;;;;1.20;1.07;;;6.30;98.00;;;;;;6121440;23;20407;-69
2022/04/01 02:49:12;;;;;;;1.20;1.10;;;6.30;98.00;;;;;;6121936;23;20408;-68
2022/04/01 02:51:41;;;;;;;1.20;1.10;;;6.20;98.00;;;;;;6092377;23;20432;-68
2022/04/01 02:54:09;;;;;;;1.30;1.10;;;6.20;98.00;;;;;;6067220;23;20428;-68
2022/04/01 02:56:39;;;;;;;1.20;0.90;;;6.30;98.00;;;;;;6066793;23;20459;-68
2022/04/01 02:59:09;;;;;;;1.20;0.90;;;6.30;98.00;;;;;;6092585;23;20445;-68
2022/04/01 03:01:37;;;;;;;2.07;1.77;;;6.20;98.00;;;;;;6092155;23;20409;-68
2022/04/01 03:04:09;;;;;;;1.80;1.00;;;6.20;98.00;;;;;;6092494;23;20884;-68
2022/04/01 03:06:38;;;;;;;1.20;0.97;;;6.30;98.00;;;;;;6092420;23;20399;-68
2022/04/01 03:09:05;;;;;;;1.20;0.90;;;6.30;98.00;;;;;;6092326;23;20433;-68
2022/04/01 03:11:32;;;;;;;1.43;1.20;;;6.20;98.00;;;;;;6092545;23;20405;-68
2022/04/01 03:13:59;;;;;;;2.90;1.50;;;6.20;98.00;;;;;;6092537;23;20454;-68
2022/04/01 03:16:26;;;;;;;1.17;0.90;;;6.20;98.00;;;;;;6092702;23;20414;-68
2022/04/01 03:18:57;;;;;;;1.20;1.00;;;6.20;98.00;;;;;;6067046;23;20441;-68
2022/04/01 03:21:24;;;;;;;1.97;1.33;;;6.20;98.00;;;;;;6092091;23;20483;-68
2022/04/01 03:23:53;;;;;;;1.20;0.90;;;6.20;98.00;;;;;;6092162;23;20505;-68
2022/04/01 03:26:21;;;;;;;1.30;1.20;;;6.10;98.00;;;;;;6092218;23;20421;-68
2022/04/01 03:28:48;;;;;;;1.20;1.00;;;6.20;98.00;;;;;;6091905;23;20464;-68
2022/04/01 03:31:16;;;;;;;1.20;1.00;;;6.20;98.00;;;;;;6092156;23;20417;-68
2022/04/01 03:33:43;;;;;;;1.20;0.90;;;6.20;98.00;;;;;;6091462;23;20882;-68
2022/04/01 03:36:10;;;;;;;1.17;0.90;;;6.20;98.00;;;;;;6092111;23;20418;-69
2022/04/01 03:38:38;;;;;;;1.30;1.10;;;6.20;98.00;;;;;;6091891;23;20461;-68
2022/04/01 03:41:08;;;;;;;1.20;1.00;;;6.30;98.00;;;;;;6091992;23;20426;-68
2022/04/01 03:43:35;;;;;;;1.20;0.90;;;6.20;98.00;;;;;;6092198;23;20461;-68
2022/04/01 03:46:08;;;;;;;1.30;1.13;;;6.30;98.00;;;;;;6066206;23;20499;-68
2022/04/01 03:48:39;;;;;;;1.30;1.20;;;6.30;98.00;;;;;;6091956;23;20416;-68
2022/04/01 03:51:07;;;;;;;1.50;1.23;;;6.10;98.00;;;;;;6115030;23;20470;-68
2022/04/01 03:53:35;;;;;;;1.20;1.00;;;6.20;98.00;;;;;;6121489;23;20726;-68
2022/04/01 03:56:06;;;;;;;1.20;1.10;;;6.20;98.00;;;;;;6121027;23;20407;-68
2022/04/01 03:58:36;;;;;;;2.40;2.10;;;6.20;98.00;;;;;;6121343;23;20847;-68
2022/04/01 04:01:05;;;;;;;1.20;1.07;;;6.20;98.00;;;;;;6121322;23;20432;-68
2022/04/01 04:03:32;;;;;;;1.20;1.00;;;6.20;98.00;;;;;;6121282;23;20462;-68
2022/04/01 04:06:00;;;;;;;1.20;0.90;;;6.10;98.00;;;;;;6121530;23;20452;-68
2022/04/01 04:08:27;;;;;;;1.40;1.27;;;6.00;98.00;;;;;;6121452;23;20400;-68
2022/04/01 04:10:56;;;;;;;1.20;1.00;;;6.00;98.00;;;;;;6121082;23;20406;-68
2022/04/01 04:13:25;;;;;;;1.20;1.00;;;6.00;98.00;;;;;;6121255;23;20414;-68
2022/04/01 04:16:05;;;;;;;1.60;1.30;;;6.00;98.00;;;;;;6120867;23;20412;-68
2022/04/01 04:18:43;;;;;;;1.20;1.00;;;6.10;98.00;;;;;;6097047;23;20402;-68
2022/04/01 04:21:17;;;;;;;1.20;0.90;;;6.00;98.00;;;;;;6121239;23;20715;-68
2022/04/01 04:23:48;;;;;;;1.90;1.23;;;6.00;98.00;;;;;;6121237;23;20443;-68
2022/04/01 04:26:18;;;;;;;1.53;1.20;;;6.10;98.00;;;;;;6121287;23;21007;-68
2022/04/01 04:28:48;;;;;;;1.17;1.00;;;5.90;98.00;;;;;;6072048;23;20899;-68
2022/04/01 04:31:26;;;;;;;1.20;0.90;;;5.90;98.00;;;;;;6121512;23;20909;-68
2022/04/01 04:33:56;;;;;;;1.20;0.90;;;5.90;98.00;;;;;;6095141;23;20453;-68
2022/04/01 04:36:38;;;;;;;1.20;1.03;;;5.90;98.00;;;;;;6121218;23;20718;-68
2022/04/01 04:39:07;;;;;;;1.20;1.13;;;5.90;98.00;;;;;;6121357;23;20443;-68
2022/04/01 04:41:35;;;;;;;1.20;1.00;;;5.80;98.00;;;;;;6121132;23;20460;-68
2022/04/01 04:44:03;;;;;;;1.10;0.90;;;5.80;98.00;;;;;;6121275;23;20825;-68
2022/04/01 04:46:35;;;;;;;2.03;1.40;;;5.90;98.00;;;;;;6121354;23;20400;-68
2022/04/01 04:49:03;;;;;;;1.20;1.00;;;5.90;98.00;;;;;;6121054;23;20879;-68
2022/04/01 04:51:33;;;;;;;1.20;1.00;;;5.90;98.00;;;;;;6120887;23;20739;-68
2022/04/01 04:54:03;;;;;;;1.20;0.90;;;5.90;98.00;;;;;;6095406;23;21125;-68
2022/04/01 04:56:32;;;;;;;1.30;1.20;;;5.90;98.00;;;;;;6121462;23;20778;-68
2022/04/01 04:59:02;;;;;;;1.20;1.00;;;5.90;98.00;;;;;;6121072;23;20917;-68
2022/04/01 05:01:38;;;;;;;1.40;1.10;;;6.00;98.00;;;;;;6121097;23;20402;-68
2022/04/01 05:04:42;;;;;;;1.20;1.00;;;5.90;98.00;;;;;;6121267;23;20440;-68
2022/04/01 05:07:24;;;;;;;1.27;1.13;;;5.90;98.00;;;;;;6120691;23;20444;-68
2022/04/01 05:10:00;;;;;;;1.20;1.10;;;5.80;98.00;;;;;;6120920;23;20406;-68
2022/04/01 05:12:34;;;;;;;1.13;1.00;;;5.80;98.00;;;;;;6120899;23;20406;-68
2022/04/01 05:15:09;;;;;;;1.20;1.00;;;5.70;98.00;;;;;;6120691;23;20890;-68
2022/04/01 05:17:38;;;;;;;1.10;1.00;;;5.70;98.00;;;;;;6120416;23;20504;-68
2022/04/01 05:20:15;;;;;;;1.20;1.00;;;5.60;98.00;;;;;;6120576;23;20923;-68
2022/04/01 05:23:11;;;;;;;1.20;1.10;;;5.60;98.00;;;;;;6120913;23;20604;-68
2022/04/01 05:25:42;;;;;;;1.20;0.93;;;5.60;98.00;;;;;;6120648;23;20496;-68
2022/04/01 05:28:20;;;;;;;1.20;1.10;;;5.60;98.00;;;;;;6120958;23;20700;-67
2022/04/01 05:30:55;;;;;;;1.30;1.10;;;5.60;98.00;;;;;;6120863;23;20711;-68
2022/04/01 05:33:27;;;;;;;1.20;1.00;;;5.70;98.00;;;;;;6121061;23;20435;-67
2022/04/01 05:35:54;;;;;;;1.20;1.00;;;5.60;98.00;;;;;;6120596;23;20438;-68
2022/04/01 05:38:23;;;;;;;1.87;1.40;;;5.60;98.00;;;;;;6120663;23;20451;-67
2022/04/01 05:40:51;;;;;;;1.30;1.10;;;5.60;98.00;;;;;;6120883;23;20764;-68
2022/04/01 05:43:18;;;;;;;1.20;0.90;;;5.60;98.00;;;;;;6121125;23;20762;-68
2022/04/01 05:45:50;;;;;;;1.20;1.10;;;5.60;98.00;;;;;;6120461;23;20532;-68
2022/04/01 05:48:20;;;;;;;1.20;1.00;;;5.70;98.00;;;;;;6121162;23;20425;-68
2022/04/01 05:50:52;;;;;;;1.40;1.23;;;5.70;98.00;;;;;;6120625;23;20483;-68
2022/04/01 05:53:22;;;;;;;1.30;1.23;;;5.70;98.00;;;;;;6121011;23;20490;-68
2022/04/01 05:55:51;;;;;;;1.60;1.30;;;5.70;98.00;;;;;;6120454;23;20427;-68
2022/04/01 05:58:18;;;;;;;1.20;1.00;;;5.70;98.00;;;;;;6120660;23;20807;-68
2022/04/01 06:00:52;;;;;;;1.60;1.27;;;5.60;98.00;;;;;;6120647;23;20414;-68
2022/04/01 06:03:40;;;;;;;1.20;0.93;;;5.60;98.00;;;;;;6120650;23;20431;-68
2022/04/01 06:06:14;;;;;;;1.13;0.90;;;5.60;98.00;;;;;;6120542;23;20871;-68
2022/04/01 06:08:54;;;;;;;1.30;1.20;;;5.60;98.00;;;;;;6120248;23;20410;-68
2022/04/01 06:11:39;;;;;;;1.30;1.10;;;5.60;98.00;;;;;;6120246;23;20403;-68
2022/04/01 06:14:16;;;;;;;1.10;1.00;;;5.60;98.00;;;;;;6120339;23;20411;-68
2022/04/01 06:16:45;;;;;;;1.20;1.10;;;5.60;98.00;;;;;;6094751;23;20441;-68
2022/04/01 06:19:23;;;;;;;1.20;1.10;;;5.60;98.00;;;;;;6121222;23;20425;-68
2022/04/01 06:22:03;;;;;;;1.20;1.20;;;5.70;98.00;;;;;;6121841;23;20437;-68
2022/04/01 06:24:38;;;;;;;1.10;0.90;;;5.60;98.00;;;;;;6121864;23;20431;-68
2022/04/01 06:27:09;;;;;;;1.20;0.90;;;5.50;98.00;;;;;;6121354;23;20403;-67
2022/04/01 06:29:39;;;;;;;1.20;0.90;;;5.50;98.00;;;;;;6121859;23;20802;-68
2022/04/01 06:32:08;;;;;;;1.20;1.00;;;5.60;98.00;;;;;;6121637;23;20408;-68
2022/04/01 06:34:56;;;;;;;1.20;1.00;;;5.60;98.00;;;;;;6121802;23;20448;-68
2022/04/01 06:37:30;;;;;;;1.40;1.20;;;5.60;98.00;;;;;;6121868;23;20427;-68
2022/04/01 06:40:09;;;;;;;1.20;1.10;;;5.60;98.00;;;;;;6121660;23;20454;-68
2022/04/01 06:42:38;;;;;;;1.50;1.27;;;5.70;98.00;;;;;;6121612;23;20413;-68
2022/04/01 06:45:13;;;;;;;1.30;1.30;;;5.50;98.00;;;;;;6121197;23;20533;-68
2022/04/01 06:47:40;;;;;;;1.23;1.10;;;5.40;98.00;;;;;;6121233;23;20443;-68
2022/04/01 06:50:09;;;;;;;1.20;1.10;;;5.50;98.00;;;;;;6120594;23;20435;-68
2022/04/01 06:52:38;;;;;;;1.27;1.23;;;5.50;98.00;;;;;;6121114;23;20913;-68
2022/04/01 06:55:08;;;;;;;1.20;1.00;;;5.60;98.00;;;;;;6121530;23;20473;-68
2022/04/01 06:57:35;;;;;;;1.10;1.00;;;5.50;98.00;;;;;;6121685;23;20413;-68
2022/04/01 07:00:03;;;;;;;1.10;1.00;;;5.60;98.00;;;;;;6121646;23;20828;-68
2022/04/01 07:02:30;;;;;;;2.70;1.40;;;5.60;98.00;;;;;;6121239;23;20431;-68
2022/04/01 07:04:57;;;;;;;1.20;1.00;;;5.50;98.00;;;;;;6120956;23;20477;-68
2022/04/01 07:07:24;;;;;;;1.10;0.90;;;5.50;98.00;;;;;;6121125;23;20396;-67
2022/04/01 07:09:52;;;;;;;1.10;1.00;;;5.70;98.00;;;;;;6095554;23;20458;-67
2022/04/01 07:12:20;;;;;;;1.20;1.00;;;5.70;98.00;;;;;;6121205;23;20447;-67
2022/04/01 07:14:47;;;;;;;1.60;1.30;;;5.70;98.00;;;;;;6121083;23;20424;-67
2022/04/01 07:17:14;;;;;;;1.20;1.00;;;5.70;98.00;;;;;;6095478;23;20467;-67
2022/04/01 07:19:41;;;;;;;1.20;1.03;;;5.70;98.00;;;;;;6121236;23;20402;-67
2022/04/01 07:22:08;;;;;;;1.30;1.20;;;5.60;98.00;;;;;;6121332;23;20427;-67
2022/04/01 07:24:35;;;;;;;1.20;1.00;;;5.70;98.00;;;;;;6121283;23;20494;-67
2022/04/01 07:27:04;;;;;;;1.20;1.10;;;5.70;98.00;;;;;;6121643;23;20432;-67
2022/04/01 07:29:31;;;;;;;1.20;1.10;;;5.70;98.00;;;;;;6121185;23;20409;-67
2022/04/01 07:34:44;;;;;;;1.10;1.00;;;5.60;98.00;;;;;;6121728;23;20399;-66
2022/04/01 07:37:12;;;;;;;1.30;1.10;;;5.60;98.00;;;;;;6121384;23;20433;-65
2022/04/01 07:39:39;;;;;;;1.13;1.00;;;5.60;98.00;;;;;;6121349;23;20421;-66
2022/04/01 07:42:08;;;;;;;1.17;1.03;;;5.50;98.00;;;;;;6121520;23;20809;-66
2022/04/01 07:44:36;;;;;;;1.40;1.30;;;5.40;98.00;;;;;;6121316;23;20819;-66
2022/04/01 07:47:06;;;;;;;1.30;1.10;;;5.40;98.00;;;;;;6095336;23;20508;-65
2022/04/01 07:49:33;;;;;;;1.60;1.40;;;5.50;98.00;;;;;;6121179;23;20510;-65
2022/04/01 07:52:00;;;;;;;2.50;1.87;;;5.40;98.00;;;;;;6121142;23;20896;-65
2022/04/01 07:54:27;;;;;;;1.20;1.07;;;5.40;98.00;;;;;;6121494;23;20448;-66
2022/04/01 07:56:53;;;;;;;1.50;1.13;;;5.40;98.00;;;;;;6095815;23;20903;-66
2022/04/01 07:59:24;;;;;;;1.20;1.00;;;5.40;98.00;;;;;;6121557;23;20748;-65
2022/04/01 08:01:51;;;;;;;1.60;1.20;;;5.40;98.00;;;;;;6121443;23;20403;-65
2022/04/01 08:04:18;;;;;;;1.20;1.10;;;5.40;98.00;;;;;;6121360;23;20414;-65
2022/04/01 08:06:45;;;;;;;1.20;1.00;;;5.40;98.00;;;;;;6118586;23;20488;-64
2022/04/01 08:09:13;;;;;;;1.40;1.13;;;5.40;98.00;;;;;;6120376;23;20442;-65
2022/04/01 08:11:40;;;;;;;1.30;1.27;;;5.40;98.00;;;;;;6120181;23;20411;-66
2022/04/01 08:14:08;;;;;;;1.20;1.10;;;5.50;98.00;;;;;;6120491;23;20412;-66
2022/04/01 08:16:36;;;;;;;1.20;1.20;;;5.50;98.00;;;;;;6120008;23;21149;-66
2022/04/01 08:19:04;;;;;;;1.90;1.80;;;5.40;98.00;;;;;;6119878;23;20410;-66
2022/04/01 08:21:32;;;;;;;1.70;1.13;;;5.30;98.00;;;;;;6119989;23;20441;-66
2022/04/01 08:23:59;;;;;;;1.20;1.00;;;5.20;98.00;;;;;;6119985;23;20914;-66
2022/04/01 08:26:26;;;;;;;1.20;1.00;;;5.30;98.00;;;;;;6120291;23;20439;-65
2022/04/01 08:28:53;;;;;;;2.80;1.93;;;5.30;98.00;;;;;;6120329;23;20412;-66
2022/04/01 08:31:21;;;;;;;1.20;1.00;;;5.40;98.00;;;;;;6120452;23;20426;-65
2022/04/01 08:33:53;;;;;;;1.10;1.00;;;5.50;98.00;;;;;;6120228;23;20401;-66
2022/04/01 08:36:20;;;;;;;1.20;1.00;;;5.50;98.00;;;;;;6120162;23;20398;-65
2022/04/01 08:38:46;;;;;;;1.20;0.90;;;5.50;98.00;;;;;;6119900;23;20458;-66
2022/04/01 08:41:17;;;;;;;1.40;1.33;;;5.50;98.00;;;;;;6119480;23;20457;-66
2022/04/01 08:43:45;;;;;;;1.20;1.00;;;5.50;98.00;;;;;;6120222;23;20761;-66
2022/04/01 08:46:14;;;;;;;1.87;1.47;;;5.60;98.00;;;;;;6119744;23;20543;-66
2022/04/01 08:48:43;;;;;;;1.20;1.20;;;5.60;98.00;;;;;;6120193;23;20423;-66
2022/04/01 08:51:13;;;;;;;1.20;1.00;;;5.60;98.00;;;;;;6118903;23;20488;-66
2022/04/01 08:53:41;;;;;;;1.30;1.20;;;5.60;98.00;;;;;;6120161;23;20814;-66
2022/04/01 08:56:09;;;;;;;1.20;1.00;;;5.50;98.00;;;;;;6120071;23;20437;-66
2022/04/01 08:58:36;;;;;;;1.20;1.00;;;5.50;98.00;;;;;;6120052;23;20429;-66
2022/04/01 09:01:06;;;;;;;1.50;1.40;;;5.60;98.00;;;;;;6120139;23;20665;-66
2022/04/01 09:03:35;;;;;;;1.20;1.10;;;5.60;98.00;;;;;;6120840;23;20891;-66
2022/04/01 09:06:04;;;;;;;1.30;1.10;;;5.50;98.00;;;;;;6120545;23;21064;-66
2022/04/01 09:08:35;;;;;;;1.80;1.53;;;5.50;98.00;;;;;;6121065;23;20430;-66
2022/04/01 09:11:04;;;;;;;2.03;1.37;;;5.40;98.00;;;;;;6095673;23;20433;-66
2022/04/01 09:13:33;;;;;;;1.20;1.00;;;5.40;98.00;;;;;;6121383;23;20408;-64
2022/04/01 09:16:02;;;;;;;2.07;1.50;;;5.40;98.00;;;;;;6121336;23;20749;-66
2022/04/01 09:18:37;;;;;;;1.40;1.00;;;5.30;98.00;;;;;;6121278;23;20485;-65
2022/04/01 09:21:05;;;;;;;1.17;1.07;;;5.30;98.00;;;;;;6120153;23;20440;-66
2022/04/01 09:23:34;;;;;;;1.93;1.30;;;5.30;98.00;;;;;;6120170;23;20402;-66
2022/04/01 09:26:02;;;;;;;1.50;1.40;;;5.20;98.00;;;;;;6120106;23;20439;-66
2022/04/01 09:28:30;;;;;;;1.33;1.30;;;5.20;98.00;;;;;;6120225;23;20476;-66
2022/04/01 09:30:59;;;;;;;1.20;1.00;;;5.30;98.00;;;;;;6120010;23;20424;-66
2022/04/01 09:33:33;;;;;;;1.20;1.00;;;5.20;98.00;;;;;;6119807;23;20420;-67
2022/04/01 09:36:04;;;;;;;1.40;1.37;;;5.30;98.00;;;;;;6119170;23;20401;-66
2022/04/01 09:38:31;;;;;;;1.20;1.00;;;5.30;98.00;;;;;;6094469;23;20411;-65
2022/04/01 09:41:03;;;;;;;1.30;1.00;;;5.30;98.00;;;;;;6119430;23;20492;-65
2022/04/01 09:43:35;;;;;;;1.10;1.00;;;5.40;98.00;;;;;;6094160;23;20411;-65
2022/04/01 09:46:06;;;;;;;1.87;1.53;;;5.40;98.00;;;;;;6119492;23;20461;-66
2022/04/01 09:48:40;;;;;;;2.00;1.90;;;5.40;98.00;;;;;;6120024;23;20402;-66
2022/04/01 09:51:10;;;;;;;1.40;1.30;;;5.40;98.00;;;;;;6212718;23;20444;-66
2022/04/01 09:53:38;;;;;;;1.20;1.00;;;5.40;98.00;;;;;;6243062;22;20404;-66
2022/04/01 09:56:07;;;;;;;1.20;1.00;;;5.50;98.00;;;;;;6243820;22;20404;-66
2022/04/01 09:58:34;;;;;;;1.10;0.93;;;5.50;98.00;;;;;;6243757;22;20860;-66
2022/04/01 10:01:02;;;;;;;2.23;1.40;;;5.60;98.00;;;;;;6241967;23;20446;-66
2022/04/01 10:03:29;;;;;;;1.13;0.90;;;5.60;98.00;;;;;;6243622;22;20464;-66
2022/04/01 10:05:58;;;;;;;1.20;1.00;;;5.60;98.00;;;;;;6243178;22;20447;-66
2022/04/01 10:08:27;;;;;;;1.30;1.10;;;5.50;98.00;;;;;;6242228;23;20419;-66
2022/04/01 10:10:55;;;;;;;1.20;0.90;;;5.50;98.00;;;;;;6241847;23;20420;-68
2022/04/01 10:13:26;;;;;;;1.20;1.10;;;5.40;98.00;;;;;;6243602;22;20400;-68
2022/04/01 10:15:55;;;;;;;1.20;1.10;;;5.30;98.00;;;;;;6243531;22;20470;-68
2022/04/01 10:18:22;;;;;;;2.17;1.40;;;5.20;98.00;;;;;;6243782;22;20427;-66
2022/04/01 10:20:54;;;;;;;1.20;1.10;;;5.20;98.00;;;;;;6243733;22;20422;-66
2022/04/01 10:23:22;;;;;;;1.20;1.00;;;5.30;98.00;;;;;;6243791;22;20405;-66
2022/04/01 10:25:57;;;;;;;1.30;1.10;;;5.40;98.00;;;;;;6241604;23;20446;-66
2022/04/01 10:28:28;;;;;;;1.20;1.00;;;5.40;98.00;;;;;;6243344;22;20414;-66
2022/04/01 10:30:56;;;;;;;1.10;0.90;;;5.40;98.00;;;;;;6241711;23;20431;-66
2022/04/01 10:33:26;;;;;;;3.10;1.30;;;5.40;98.00;;;;;;6243659;22;20451;-66
2022/04/01 10:35:54;;;;;;;1.40;1.20;;;5.30;98.00;;;;;;6243695;22;20711;-66
2022/04/01 10:38:26;;;;;;;1.20;1.00;;;5.30;98.00;;;;;;6243658;22;20403;-66
2022/04/01 10:40:54;;;;;;;1.30;1.13;;;5.40;98.00;;;;;;6243478;22;20408;-66
2022/04/01 10:43:22;;;;;;;1.10;0.90;;;5.40;98.00;;;;;;6243259;22;20879;-66
2022/04/01 10:46:10;;;;;;;1.80;1.73;;;5.30;98.00;;;;;;6242889;22;20968;-66
2022/04/01 10:51:37;;;;;;;1.53;1.53;;;5.30;98.00;;;;;;6210790;22;20753;-66
2022/04/01 10:54:26;;;;;;;1.30;1.30;;;5.20;98.00;;;;;;6243644;22;20426;-66
2022/04/01 10:57:00;;;;;;;1.10;1.00;;;5.30;98.00;;;;;;6242837;22;20415;-65
2022/04/01 10:59:28;;;;;;;1.50;1.20;;;5.30;98.00;;;;;;6244641;22;20403;-66
2022/04/01 11:02:07;;;;;;;1.10;0.93;;;5.30;98.00;;;;;;6244739;22;20430;-66
2022/04/01 11:04:38;;;;;;;1.30;1.10;;;5.30;98.00;;;;;;6244381;22;20866;-65
2022/04/01 11:07:07;;;;;;;1.10;0.90;;;5.20;98.00;;;;;;6244897;22;20971;-66
2022/04/01 11:09:44;;;;;;;1.20;1.10;;;5.30;98.00;;;;;;6245361;22;20480;-66
2022/04/01 11:12:32;;;;;;;1.20;0.90;;;5.40;98.00;;;;;;6245578;22;20406;-66
2022/04/01 11:15:10;;;;;;;1.20;0.90;;;5.40;98.00;;;;;;6244914;22;20455;-66
2022/04/01 11:18:03;;;;;;;1.30;1.00;;;5.50;98.00;;;;;;6245141;22;20429;-66
2022/04/01 11:20:32;;;;;;;1.10;0.90;;;5.50;98.00;;;;;;6232002;22;20487;-66
2022/04/01 11:23:10;;;;;;;1.20;0.90;;;5.50;98.00;;;;;;6245112;22;20403;-66
2022/04/01 11:25:58;;;;;;;1.20;1.00;;;5.50;98.00;;;;;;6243375;22;20500;-66
2022/04/01 11:28:27;;;;;;;1.20;1.00;;;5.40;98.00;;;;;;6244708;22;20396;-66
2022/04/01 11:31:11;;;;;;;1.20;1.10;;;5.30;98.00;;;;;;6244697;22;20418;-66
2022/04/01 11:34:02;;;;;;;1.20;1.00;;;5.20;98.00;;;;;;6245175;22;20466;-66
2022/04/01 11:36:31;;;;;;;1.30;1.03;;;5.20;98.00;;;;;;6244606;22;20453;-66
2022/04/01 11:38:59;;;;;;;1.87;1.30;;;5.30;98.00;;;;;;6244743;22;20499;-66
2022/04/01 11:41:26;;;;;;;1.20;0.90;;;5.30;98.00;;;;;;6245057;22;20461;-66
2022/04/01 11:43:54;;;;;;;1.20;1.00;;;5.40;98.00;;;;;;6254828;22;20414;-66
2022/04/01 11:46:22;;;;;;;1.20;1.00;;;5.30;98.00;;;;;;6243420;23;20427;-68
2022/04/01 11:48:50;;;;;;;2.03;1.10;;;5.20;98.00;;;;;;6245001;22;20395;-66
2022/04/01 11:51:19;;;;;;;1.10;0.90;;;5.10;98.00;;;;;;6135154;22;20431;-66
2022/04/01 11:53:49;;;;;;;1.20;0.93;;;5.10;98.00;;;;;;6121192;23;20445;-66
2022/04/01 11:56:18;;;;;;;1.10;0.90;;;5.20;98.00;;;;;;6120604;23;20480;-66
2022/04/01 11:58:56;;;;;;;1.13;0.93;;;5.10;98.00;;;;;;6120672;23;20438;-68
2022/04/01 12:01:28;;;;;;;1.30;1.17;;;5.10;98.00;;;;;;6095320;23;20395;-66
2022/04/01 12:04:08;;;;;;;1.20;0.90;;;5.00;98.00;;;;;;6120764;23;20398;-66
2022/04/01 12:09:20;;;;;;;1.20;1.03;;;5.10;98.00;;;;;;6121130;23;20389;-66
2022/04/01 12:11:50;;;;;;;1.20;0.90;;;5.20;98.00;;;;;;6120973;23;20417;-66
2022/04/01 12:14:25;;;;;;;1.20;0.90;;;5.30;98.00;;;;;;6120840;23;20480;-66
2022/04/01 12:16:52;;;;;;;1.20;1.00;;;5.30;98.00;;;;;;6120896;23;20398;-66
2022/04/01 12:19:22;;;;;;;1.10;1.00;;;5.20;98.00;;;;;;6121225;23;20767;-66
2022/04/01 12:21:51;;;;;;;1.20;1.00;;;5.20;98.00;;;;;;6121158;23;20487;-66
2022/04/01 12:24:18;;;;;;;1.27;1.20;;;5.20;98.00;;;;;;6071418;23;20426;-66
2022/04/01 12:26:48;;;;;;;1.20;1.00;;;5.20;98.00;;;;;;6121116;23;20449;-66
2022/04/01 12:29:23;;;;;;;1.20;1.10;;;5.20;98.00;;;;;;6121427;23;20412;-66
2022/04/01 12:31:52;;;;;;;1.20;1.10;;;5.20;98.00;;;;;;6121192;23;20417;-66
2022/04/01 12:34:22;;;;;;;1.80;1.70;;;5.10;98.00;;;;;;6121466;23;20810;-66
2022/04/01 12:36:54;;;;;;;1.17;1.00;;;5.00;98.00;;;;;;6121325;23;20473;-65
2022/04/01 12:39:22;;;;;;;2.07;1.87;;;4.90;98.00;;;;;;6121070;23;20398;-67
2022/04/01 12:41:50;;;;;;;1.20;0.90;;;4.90;98.00;;;;;;6130703;23;21119;-67
2022/04/01 12:44:18;;;;;;;1.20;1.00;;;4.80;98.00;;;;;;6121257;23;20439;-67
2022/04/01 12:46:49;;;;;;;1.30;1.10;;;4.90;98.00;;;;;;6121208;23;20441;-67
2022/04/01 12:49:17;;;;;;;1.70;1.33;;;5.00;98.00;;;;;;6121413;23;20467;-67
2022/04/01 12:51:53;;;;;;;1.20;1.00;;;5.00;98.00;;;;;;6120692;23;20973;-67
2022/04/01 12:57:13;;;;;;;1.20;0.90;;;4.90;98.00;;;;;;6117724;23;20498;-67
2022/04/01 12:59:45;;;;;;;1.60;1.03;;;4.90;98.00;;;;;;6120105;23;20429;-70
2022/04/01 13:02:14;;;;;;;1.17;0.90;;;4.90;98.00;;;;;;6119939;23;20410;-67
2022/04/01 13:04:44;;;;;;;1.70;1.50;;;4.90;98.00;;;;;;6120432;23;20430;-67
2022/04/01 13:07:15;;;;;;;2.37;2.23;;;4.60;98.00;;;;;;6119876;23;20476;-67
2022/04/01 13:09:48;;;;;;;1.70;1.53;;;4.50;98.00;;;;;;6119672;23;20407;-67
2022/04/01 13:12:15;;;;;;;1.60;1.30;;;4.50;98.00;;;;;;6119947;23;20417;-67
2022/04/01 13:14:46;;;;;;;1.10;0.90;;;4.60;98.00;;;;;;6119707;23;20869;-67
2022/04/01 13:17:16;;;;;;;1.20;1.10;;;4.70;98.00;;;;;;6120176;23;20406;-67
2022/04/01 13:19:44;;;;;;;1.20;1.10;;;4.60;98.00;;;;;;6120105;23;20417;-67
2022/04/01 13:22:13;;;;;;;2.07;1.40;;;4.60;98.00;;;;;;6120268;23;20887;-67
2022/04/01 13:24:43;;;;;;;1.50;1.40;;;4.60;98.00;;;;;;6119857;23;20943;-67
2022/04/01 13:27:11;;;;;;;1.30;1.17;;;4.60;98.00;;;;;;6119641;23;20441;-67